createdAt,value
2016-03-29T00:00:18.677Z,89.62
2016-03-29T00:01:19.758Z,89.06
2016-03-29T00:02:19.011Z,88.68
2016-03-29T00:03:19.201Z,88.96
2016-03-29T00:04:19.626Z,88.48
2016-03-29T00:05:19.285Z,88.96
2016-03-29T00:06:18.959Z,88.68
2016-03-29T00:08:19.386Z,88.68
2016-03-29T00:09:18.717Z,88.77
2016-03-29T00:10:18.844Z,88.96
2016-03-29T00:11:18.614Z,88.77
2016-03-29T00:12:18.803Z,88.2
2016-03-29T00:13:18.525Z,88.87
2016-03-29T00:14:18.841Z,88.48
2016-03-29T00:15:19.155Z,89.15
2016-03-29T00:16:19.298Z,88.58
2016-03-29T00:17:18.785Z,88.96
2016-03-29T00:18:18.616Z,88.96
2016-03-29T00:19:18.791Z,89.15
2016-03-29T00:20:19.043Z,89.34
2016-03-29T00:21:18.968Z,89.43
2016-03-29T00:22:19.252Z,89.34
2016-03-29T00:23:19.395Z,89.91
2016-03-29T00:24:19.040Z,89.77
2016-03-29T00:25:19.104Z,89.86
2016-03-29T00:26:18.998Z,90.15
2016-03-29T00:27:19.328Z,89.86
2016-03-29T00:28:19.065Z,90.19
2016-03-29T00:29:18.349Z,90.15
2016-03-29T00:30:15.601Z,90.53
2016-03-29T00:31:19.261Z,90.24
2016-03-29T00:32:18.685Z,90.24
2016-03-29T00:33:18.907Z,90.62
2016-03-29T00:34:19.097Z,90.43
2016-03-29T00:35:18.803Z,90.62
2016-03-29T00:36:18.993Z,90.72
2016-03-29T00:37:18.824Z,90.62
2016-03-29T00:39:18.782Z,90.72
2016-03-29T00:40:18.301Z,91.19
2016-03-29T00:41:19.100Z,91.38
2016-03-29T00:42:19.025Z,91.47
2016-03-29T00:44:19.999Z,91.09
2016-03-29T00:45:18.877Z,91.28
2016-03-29T00:46:18.879Z,91.38
2016-03-29T00:47:18.086Z,91.9
2016-03-29T00:48:19.119Z,91.42
2016-03-29T00:49:18.950Z,91.61
2016-03-29T00:50:19.062Z,91.14
2016-03-29T00:51:18.658Z,91.71
2016-03-29T00:52:18.505Z,90.95
2016-03-29T00:54:15.307Z,91.05
2016-03-29T00:56:15.297Z,91.05
2016-03-29T00:57:18.049Z,91.61
2016-03-29T00:58:18.318Z,91.14
2016-03-29T00:59:18.446Z,91.61
2016-03-29T01:00:15.229Z,91.61
2016-03-29T01:01:18.434Z,91.14
2016-03-29T01:02:15.657Z,91.33
2016-03-29T01:03:17.628Z,91.8
2016-03-29T01:04:18.084Z,91.9
2016-03-29T01:05:18.774Z,91.24
2016-03-29T01:06:18.730Z,90.76
2016-03-29T01:08:26.287Z,90.86
2016-03-29T01:09:18.586Z,91.05
2016-03-29T01:10:18.480Z,91.05
2016-03-29T01:11:18.452Z,91.14
2016-03-29T01:12:18.360Z,91.09
2016-03-29T01:13:17.566Z,91.05
2016-03-29T01:14:15.038Z,91.14
2016-03-29T01:15:18.056Z,91.24
2016-03-29T01:16:18.152Z,91.14
2016-03-29T01:17:17.874Z,90.86
2016-03-29T01:18:17.971Z,91.33
2016-03-29T01:19:18.098Z,91.05
2016-03-29T01:20:18.554Z,91.76
2016-03-29T01:21:18.196Z,91.61
2016-03-29T01:22:17.466Z,91
2016-03-29T01:23:15.171Z,91.28
2016-03-29T01:24:17.784Z,91.57
2016-03-29T01:25:14.973Z,91.66
2016-03-29T01:26:18.898Z,91.42
2016-03-29T01:27:15.354Z,91.42
2016-03-29T01:28:23.419Z,90.95
2016-03-29T01:29:18.343Z,91.14
2016-03-29T01:30:14.893Z,91.24
2016-03-29T01:31:18.880Z,90.86
2016-03-29T01:32:14.883Z,90.86
2016-03-29T01:33:15.073Z,90.86
2016-03-29T01:34:15.154Z,90.19
2016-03-29T01:35:18.063Z,90.19
2016-03-29T01:36:14.830Z,90.29
2016-03-29T01:37:14.786Z,89.62
2016-03-29T01:38:15.227Z,89.34
2016-03-29T01:39:17.902Z,89.25
2016-03-29T01:40:15.044Z,88.77
2016-03-29T01:42:14.972Z,88.39
2016-03-29T01:43:14.975Z,88.01
2016-03-29T01:44:14.977Z,88.2
2016-03-29T01:45:18.090Z,87.92
2016-03-29T01:46:16.061Z,87.73
2016-03-29T01:47:14.923Z,87.92
2016-03-29T01:48:16.004Z,88.1
2016-03-29T01:49:16.693Z,87.92
2016-03-29T01:50:17.307Z,88.2
2016-03-29T01:51:17.668Z,88.29
2016-03-29T01:52:17.952Z,87.45
2016-03-29T01:54:17.832Z,87.54
2016-03-29T01:55:17.976Z,87.92
2016-03-29T01:56:17.697Z,88.1
2016-03-29T01:57:17.966Z,87.35
2016-03-29T01:58:17.984Z,87.68
2016-03-29T01:59:14.768Z,87.2
2016-03-29T02:00:18.036Z,87.73
2016-03-29T02:02:17.604Z,87.39
2016-03-29T02:03:17.903Z,87.2
2016-03-29T02:04:14.766Z,87.68
2016-03-29T02:05:17.847Z,87.39
2016-03-29T02:06:17.600Z,86.82
2016-03-29T02:07:14.711Z,86.91
2016-03-29T02:08:17.886Z,87.39
2016-03-29T02:09:17.889Z,87.49
2016-03-29T02:11:17.863Z,88.34
2016-03-29T02:12:18.037Z,88.34
2016-03-29T02:13:17.086Z,88.06
2016-03-29T02:16:18.705Z,88.72
2016-03-29T02:17:17.505Z,88.91
2016-03-29T02:18:17.710Z,89.1
2016-03-29T02:19:17.665Z,89.2
2016-03-29T02:20:17.434Z,89.48
2016-03-29T02:21:17.390Z,89.29
2016-03-29T02:22:17.689Z,89.39
2016-03-29T02:23:17.442Z,90.05
2016-03-29T02:24:17.412Z,90.24
2016-03-29T02:25:17.698Z,90.05
2016-03-29T02:26:17.512Z,90.52
2016-03-29T02:27:17.453Z,90.9
2016-03-29T02:28:17.581Z,90.52
2016-03-29T02:29:17.520Z,91.19
2016-03-29T02:30:27.742Z,91.94
2016-03-29T02:31:17.556Z,90.86
2016-03-29T02:32:17.778Z,91.52
2016-03-29T02:33:17.484Z,90.38
2016-03-29T02:34:17.440Z,90.67
2016-03-29T02:35:17.302Z,90.48
2016-03-29T02:37:17.464Z,91.52
2016-03-29T02:38:17.388Z,91.71
2016-03-29T02:39:17.485Z,91.9
2016-03-29T02:40:17.675Z,91.8
2016-03-29T02:41:17.756Z,92.04
2016-03-29T02:42:17.305Z,92.23
2016-03-29T02:43:17.371Z,92.18
2016-03-29T02:44:17.592Z,92.04
2016-03-29T02:45:17.377Z,92.52
2016-03-29T02:46:16.910Z,92.71
2016-03-29T02:47:16.896Z,92.8
2016-03-29T02:48:18.635Z,92.8
2016-03-29T02:49:17.746Z,92.42
2016-03-29T02:50:16.796Z,93.08
2016-03-29T02:51:17.814Z,92.71
2016-03-29T02:52:17.583Z,93.08
2016-03-29T02:53:17.351Z,93.27
2016-03-29T02:54:16.884Z,93.18
2016-03-29T02:55:17.090Z,92.9
2016-03-29T02:56:17.249Z,92.99
2016-03-29T02:57:17.205Z,92.9
2016-03-29T02:58:17.020Z,93.23
2016-03-29T02:59:17.085Z,92.99
2016-03-29T03:00:17.057Z,92.99
2016-03-29T03:01:16.654Z,92.47
2016-03-29T03:02:17.359Z,92.09
2016-03-29T03:03:16.643Z,92.09
2016-03-29T03:05:16.523Z,92.09
2016-03-29T03:06:29.464Z,92.09
2016-03-29T03:07:59.248Z,91.71
2016-03-29T03:09:34.706Z,91.71
2016-03-29T03:11:09.571Z,92.19
2016-03-29T03:12:31.245Z,92
2016-03-29T03:13:55.154Z,92.28
2016-03-29T03:15:28.488Z,92.09
2016-03-29T03:16:53.319Z,92.28
2016-03-29T03:18:21.574Z,92.66
2016-03-29T03:19:48.655Z,92.47
2016-03-29T03:20:48.470Z,92.66
2016-03-29T03:21:48.801Z,92.76
2016-03-29T03:22:48.615Z,92.66
2016-03-29T03:23:48.635Z,93.23
2016-03-29T03:24:48.731Z,93.32
2016-03-29T03:25:48.390Z,92.76
2016-03-29T03:26:48.955Z,93.23
2016-03-29T03:28:48.742Z,92.85
2016-03-29T03:29:48.462Z,92.66
2016-03-29T03:30:48.653Z,92.38
2016-03-29T03:31:48.218Z,92.66
2016-03-29T03:32:48.096Z,92.38
2016-03-29T03:33:48.333Z,92.57
2016-03-29T03:34:48.289Z,92.57
2016-03-29T03:35:48.354Z,92.8
2016-03-29T03:36:48.309Z,92.9
2016-03-29T03:37:47.767Z,92.14
2016-03-29T03:38:48.456Z,92.04
2016-03-29T03:39:48.803Z,92.14
2016-03-29T03:40:48.305Z,92.14
2016-03-29T03:41:48.402Z,92.23
2016-03-29T03:42:48.248Z,92.09
2016-03-29T03:43:48.703Z,92.23
2016-03-29T03:44:48.128Z,92.23
2016-03-29T03:46:48.259Z,91.85
2016-03-29T03:47:48.636Z,91.66
2016-03-29T03:49:45.283Z,91.47
2016-03-29T03:50:45.176Z,91.09
2016-03-29T03:51:47.882Z,90.62
2016-03-29T03:52:48.602Z,90.91
2016-03-29T03:53:47.685Z,90.72
2016-03-29T03:54:48.155Z,89.96
2016-03-29T03:56:48.301Z,90.15
2016-03-29T03:57:48.148Z,90.15
2016-03-29T03:58:48.150Z,90.24
2016-03-29T03:59:48.419Z,90.15
2016-03-29T04:00:48.374Z,90.34
2016-03-29T04:01:47.940Z,89.67
2016-03-29T04:02:48.161Z,89.29
2016-03-29T04:03:47.836Z,89.2
2016-03-29T04:04:48.135Z,89.58
2016-03-29T04:05:47.997Z,89.48
2016-03-29T04:06:47.656Z,89.39
2016-03-29T04:07:48.080Z,89.86
2016-03-29T04:08:44.943Z,89.96
2016-03-29T04:09:44.836Z,89.67
2016-03-29T04:10:48.073Z,89.77
2016-03-29T04:11:48.201Z,89.96
2016-03-29T04:12:48.110Z,89.96
2016-03-29T04:13:47.894Z,90.53
2016-03-29T04:14:48.069Z,90.43
2016-03-29T04:15:47.868Z,89.96
2016-03-29T04:16:47.777Z,90.43
2016-03-29T04:17:47.873Z,90.43
2016-03-29T04:18:47.923Z,90.01
2016-03-29T04:19:47.644Z,90.34
2016-03-29T04:21:47.994Z,90.05
2016-03-29T04:22:47.480Z,90.15
2016-03-29T04:23:47.749Z,90.34
2016-03-29T04:24:48.110Z,90.24
2016-03-29T04:25:47.941Z,89.96
2016-03-29T04:26:44.538Z,90.05
2016-03-29T04:27:44.572Z,89.86
2016-03-29T04:28:44.794Z,90.29
2016-03-29T04:29:44.812Z,90.01
2016-03-29T04:30:47.674Z,90.01
2016-03-29T04:31:44.287Z,90.1
2016-03-29T04:32:44.742Z,89.91
2016-03-29T04:33:44.229Z,89.72
2016-03-29T04:34:47.482Z,90.39
2016-03-29T04:35:44.468Z,90.58
2016-03-29T04:36:58.893Z,90.39
2016-03-29T04:38:20.726Z,90.58
2016-03-29T04:39:56.479Z,90.86
2016-03-29T04:41:37.751Z,91.33
2016-03-29T04:43:21.553Z,90.48
2016-03-29T04:45:03.055Z,90.48
2016-03-29T04:46:39.436Z,90.86
2016-03-29T04:49:42.772Z,89.86
2016-03-29T04:51:15.668Z,89.67
2016-03-29T04:52:46.421Z,89.63
2016-03-29T04:54:10.302Z,89.48
2016-03-29T04:55:28.616Z,89.2
2016-03-29T04:56:50.619Z,89.86
2016-03-29T04:58:12.875Z,89.91
2016-03-29T04:59:36.080Z,89.96
2016-03-29T05:00:57.974Z,89.96
2016-03-29T05:02:23.182Z,89.2
2016-03-29T05:03:44.857Z,89.11
2016-03-29T05:05:16.627Z,89.77
2016-03-29T05:06:01.986Z,89.77
2016-03-29T05:07:02.193Z,89.77
2016-03-29T05:08:02.008Z,90.05
2016-03-29T05:09:01.964Z,89.01
2016-03-29T05:10:02.420Z,89.2
2016-03-29T05:11:02.173Z,89.11
2016-03-29T05:12:02.253Z,89.34
2016-03-29T05:13:01.974Z,89.34
2016-03-29T05:14:03.665Z,89.53
2016-03-29T05:15:01.839Z,89.25
2016-03-29T05:16:01.872Z,89.72
2016-03-29T05:17:02.047Z,89.53
2016-03-29T05:18:02.144Z,89.25
2016-03-29T05:19:03.053Z,89.15
2016-03-29T05:20:02.305Z,89.82
2016-03-29T05:21:02.325Z,89.39
2016-03-29T05:22:02.905Z,89.29
2016-03-29T05:23:01.705Z,89.39
2016-03-29T05:24:01.926Z,89.58
2016-03-29T05:25:01.772Z,89.2
2016-03-29T05:26:01.510Z,88.92
2016-03-29T05:27:01.715Z,88.92
2016-03-29T05:28:02.062Z,88.73
2016-03-29T05:30:02.161Z,88.35
2016-03-29T05:31:01.867Z,88.35
2016-03-29T05:32:01.635Z,88.35
2016-03-29T05:33:01.872Z,88.16
2016-03-29T05:34:01.374Z,88.16
2016-03-29T05:35:01.956Z,88.25
2016-03-29T05:36:02.661Z,87.87
2016-03-29T05:37:03.227Z,87.49
2016-03-29T05:38:01.635Z,87.21
2016-03-29T05:39:01.684Z,85.41
2016-03-29T05:40:01.531Z,83.42
2016-03-29T05:41:03.018Z,82.47
2016-03-29T05:42:01.333Z,81.62
2016-03-29T05:43:02.617Z,81.43
2016-03-29T05:44:01.683Z,80.95
2016-03-29T05:45:01.607Z,82.28
2016-03-29T05:47:02.613Z,81.48
2016-03-29T05:48:01.647Z,81.81
2016-03-29T05:49:01.649Z,82.33
2016-03-29T05:50:02.277Z,81.43
2016-03-29T05:51:01.388Z,82.62
2016-03-29T05:52:02.408Z,82.05
2016-03-29T05:53:02.332Z,81.99
2016-03-29T05:54:01.132Z,81.9
2016-03-29T05:55:01.681Z,81.71
2016-03-29T05:56:01.309Z,83.23
2016-03-29T05:57:01.640Z,82.75
2016-03-29T05:58:01.079Z,82.85
2016-03-29T05:59:01.770Z,83.23
2016-03-29T06:00:02.194Z,82.75
2016-03-29T06:01:02.462Z,83.13
2016-03-29T06:02:02.246Z,82.85
2016-03-29T06:04:02.612Z,83.04
2016-03-29T06:05:02.130Z,82.18
2016-03-29T06:06:02.523Z,82.28
2016-03-29T06:07:01.026Z,81.9
2016-03-29T06:08:01.279Z,83.32
2016-03-29T06:09:01.250Z,83.89
2016-03-29T06:10:01.147Z,83.23
2016-03-29T06:11:00.899Z,82.85
2016-03-29T06:12:00.981Z,83.42
2016-03-29T06:13:01.749Z,82.85
2016-03-29T06:14:01.080Z,83.32
2016-03-29T06:15:01.880Z,83.7
2016-03-29T06:16:02.382Z,84.27
2016-03-29T06:17:02.260Z,83.7
2016-03-29T06:18:01.668Z,84.08
2016-03-29T06:19:01.125Z,84.55
2016-03-29T06:20:01.112Z,85.22
2016-03-29T06:21:01.302Z,84.46
2016-03-29T06:22:02.179Z,84.27
2016-03-29T06:23:00.963Z,83.7
2016-03-29T06:24:01.809Z,84.36
2016-03-29T06:25:01.062Z,84.74
2016-03-29T06:26:00.800Z,84.36
2016-03-29T06:27:00.959Z,84.65
2016-03-29T06:28:01.976Z,84.65
2016-03-29T06:29:01.948Z,84.84
2016-03-29T06:30:02.544Z,84.46
2016-03-29T06:31:01.001Z,84.74
2016-03-29T06:32:01.831Z,83.32
2016-03-29T06:33:01.912Z,83.98
2016-03-29T06:34:01.211Z,82.85
2016-03-29T06:35:00.855Z,82.94
2016-03-29T06:36:02.077Z,83.08
2016-03-29T06:37:00.969Z,82.7
2016-03-29T06:38:01.083Z,82.89
2016-03-29T06:39:02.038Z,82.89
2016-03-29T06:40:00.931Z,80.04
2016-03-29T06:41:02.121Z,79.19
2016-03-29T06:42:00.905Z,79.85
2016-03-29T06:43:00.830Z,80.14
2016-03-29T06:44:02.051Z,79.38
2016-03-29T06:45:01.804Z,79.28
2016-03-29T06:46:00.759Z,79.28
2016-03-29T06:47:00.466Z,79.19
2016-03-29T06:48:01.546Z,77.58
2016-03-29T06:49:01.674Z,75.96
2016-03-29T06:50:01.318Z,75.59
2016-03-29T06:51:01.632Z,74.07
2016-03-29T06:52:00.698Z,73.97
2016-03-29T06:53:00.732Z,75.21
2016-03-29T06:54:01.501Z,76.82
2016-03-29T06:55:00.697Z,76.63
2016-03-29T06:56:00.385Z,76.15
2016-03-29T06:57:00.700Z,77.29
2016-03-29T06:58:00.529Z,77.73
2016-03-29T06:59:03.937Z,79.44
2016-03-29T07:00:03.786Z,79.25
2016-03-29T07:01:03.735Z,80.57
2016-03-29T07:02:00.295Z,80.48
2016-03-29T07:03:03.744Z,80.19
2016-03-29T07:04:04.334Z,80.76
2016-03-29T07:05:03.520Z,81.24
2016-03-29T07:06:03.740Z,80.62
2016-03-29T07:07:03.412Z,78.53
2016-03-29T07:08:03.491Z,74.33
2016-03-29T07:09:03.585Z,72.56
2016-03-29T07:10:00.680Z,71.43
2016-03-29T07:11:00.745Z,70.67
2016-03-29T07:12:03.261Z,68.86
2016-03-29T07:13:03.357Z,68.39
2016-03-29T07:14:03.891Z,69.34
2016-03-29T07:15:00.299Z,70.38
2016-03-29T07:16:00.316Z,70
2016-03-29T07:17:04.007Z,69.53
2016-03-29T07:18:03.352Z,68.01
2016-03-29T07:19:03.215Z,67.97
2016-03-29T07:20:03.326Z,69.49
2016-03-29T07:21:00.267Z,69.4
2016-03-29T07:22:00.254Z,69.87
2016-03-29T07:23:00.553Z,69.96
2016-03-29T07:24:03.430Z,70.44
2016-03-29T07:25:02.106Z,68.07
2016-03-29T07:26:03.249Z,69.21
2016-03-29T07:27:00.376Z,66.2
2016-03-29T07:28:00.379Z,65.16
2016-03-29T07:28:59.928Z,62.81
2016-03-29T07:30:03.275Z,60.53
2016-03-29T07:30:59.966Z,60.72
2016-03-29T07:32:03.311Z,65.09
2016-03-29T07:32:59.939Z,64.4
2016-03-29T07:34:00.255Z,66.01
2016-03-29T07:35:00.335Z,66.49
2016-03-29T07:36:00.166Z,66.83
2016-03-29T07:37:00.372Z,67.02
2016-03-29T07:38:03.344Z,66.89
2016-03-29T07:38:59.863Z,66.52
2016-03-29T07:40:03.240Z,66.93
2016-03-29T07:41:00.071Z,69.78
2016-03-29T07:42:00.324Z,71.2
2016-03-29T07:43:00.310Z,70.73
2016-03-29T07:44:00.485Z,68.26
2016-03-29T07:45:00.253Z,67.69
2016-03-29T07:46:00.381Z,69.11
2016-03-29T07:47:01.430Z,69.21
2016-03-29T07:48:01.683Z,69.4
2016-03-29T07:49:02.701Z,68.16
2016-03-29T07:50:02.924Z,67.12
2016-03-29T07:51:00.207Z,67.69
2016-03-29T07:51:59.944Z,67.97
2016-03-29T07:53:01.040Z,68.07
2016-03-29T07:54:02.732Z,67.88
2016-03-29T07:55:01.093Z,68.64
2016-03-29T07:56:02.314Z,69.96
2016-03-29T07:57:02.912Z,70.06
2016-03-29T07:58:03.773Z,69.68
2016-03-29T07:59:03.198Z,69.21
2016-03-29T08:00:03.013Z,67.21
2016-03-29T08:01:02.906Z,69.21
2016-03-29T08:02:02.878Z,69.59
2016-03-29T08:03:02.959Z,65.88
2016-03-29T08:04:02.883Z,64.37
2016-03-29T08:06:02.842Z,65.03
2016-03-29T08:07:02.845Z,64.94
2016-03-29T08:08:02.847Z,67.12
2016-03-29T08:09:02.787Z,66.14
2016-03-29T08:10:03.618Z,68.44
2016-03-29T08:11:02.808Z,68.16
2016-03-29T08:12:02.827Z,66.71
2016-03-29T08:13:02.875Z,66.36
2016-03-29T08:14:02.988Z,66.17
2016-03-29T08:15:02.803Z,65.31
2016-03-29T08:16:02.822Z,64.84
2016-03-29T08:17:02.700Z,65.88
2016-03-29T08:18:02.764Z,65.5
2016-03-29T08:19:03.111Z,66.36
2016-03-29T08:20:03.004Z,68.16
2016-03-29T08:21:03.429Z,69.4
2016-03-29T08:22:02.229Z,69.96
2016-03-29T08:23:02.747Z,70.35
2016-03-29T08:24:02.594Z,69.59
2016-03-29T08:25:02.612Z,66.93
2016-03-29T08:26:02.755Z,67.21
2016-03-29T08:27:03.804Z,68.07
2016-03-29T08:28:02.870Z,68.26
2016-03-29T08:29:02.576Z,67.69
2016-03-29T08:30:02.688Z,69.02
2016-03-29T08:32:02.381Z,70.63
2016-03-29T08:33:02.898Z,69.78
2016-03-29T08:34:02.964Z,69.43
2016-03-29T08:35:03.139Z,68.01
2016-03-29T08:36:02.376Z,65.44
2016-03-29T08:37:02.582Z,65.19
2016-03-29T08:38:03.193Z,66.9
2016-03-29T08:40:02.589Z,64.34
2016-03-29T08:41:02.514Z,64.9
2016-03-29T08:42:03.017Z,65.28
2016-03-29T08:43:02.816Z,64.72
2016-03-29T08:44:03.069Z,65.86
2016-03-29T08:45:02.774Z,62.91
2016-03-29T08:46:03.325Z,63.2
2016-03-29T08:47:02.389Z,60.25
2016-03-29T08:48:02.564Z,61.29
2016-03-29T08:49:02.708Z,63.86
2016-03-29T08:50:02.022Z,62.34
2016-03-29T08:51:02.728Z,63.86
2016-03-29T08:52:02.605Z,63.73
2016-03-29T08:54:02.330Z,64.49
2016-03-29T08:55:02.693Z,64.72
2016-03-29T08:56:03.008Z,64.81
2016-03-29T08:57:02.432Z,63.39
2016-03-29T08:58:02.482Z,60.06
2016-03-29T08:59:02.344Z,58.85
2016-03-29T09:00:02.299Z,61.42
2016-03-29T09:00:59.334Z,61.8
2016-03-29T09:02:02.976Z,59.23
2016-03-29T09:03:02.667Z,59.71
2016-03-29T09:04:02.279Z,60.38
2016-03-29T09:05:02.345Z,59.8
2016-03-29T09:06:04.427Z,59.33
2016-03-29T09:06:59.944Z,59.71
2016-03-29T09:07:59.213Z,59.33
2016-03-29T09:08:59.184Z,58.76
2016-03-29T09:09:59.187Z,60.38
2016-03-29T09:10:59.143Z,63.89
2016-03-29T09:12:01.598Z,60.09
2016-03-29T09:12:59.773Z,58.95
2016-03-29T09:14:00.462Z,58.5
2016-03-29T09:14:59.184Z,56.22
2016-03-29T09:16:01.171Z,56.7
2016-03-29T09:17:00.456Z,56.41
2016-03-29T09:18:59.336Z,56.95
2016-03-29T09:19:59.089Z,55.33
2016-03-29T09:21:00.575Z,55.33
2016-03-29T09:21:59.157Z,54.67
2016-03-29T09:23:00.222Z,54.77
2016-03-29T09:24:00.318Z,57.62
2016-03-29T09:25:00.056Z,53.91
2016-03-29T09:26:00.089Z,54.86
2016-03-29T09:27:00.248Z,54
2016-03-29T09:27:58.813Z,52.01
2016-03-29T09:29:00.878Z,53.63
2016-03-29T09:29:59.037Z,53.81
2016-03-29T09:30:59.899Z,53.5
2016-03-29T09:31:59.183Z,55.59
2016-03-29T09:32:59.311Z,56.26
2016-03-29T09:33:59.236Z,55.3
2016-03-29T09:35:00.161Z,54.83
2016-03-29T09:35:58.944Z,54.45
2016-03-29T09:36:58.853Z,54.83
2016-03-29T09:37:58.949Z,57.59
2016-03-29T09:38:58.968Z,55.33
2016-03-29T09:39:59.002Z,54.64
2016-03-29T09:41:58.820Z,56.38
2016-03-29T09:42:59.947Z,55.71
2016-03-29T09:43:59.090Z,53.24
2016-03-29T09:44:58.921Z,53.43
2016-03-29T09:45:59.023Z,54.96
2016-03-29T09:46:59.760Z,54.77
2016-03-29T09:47:58.887Z,55.33
2016-03-29T09:48:58.843Z,55.02
2016-03-29T09:49:59.392Z,55.11
2016-03-29T09:50:58.958Z,55.02
2016-03-29T09:51:59.242Z,54.83
2016-03-29T09:52:58.635Z,56.16
2016-03-29T09:53:58.545Z,55.21
2016-03-29T09:54:58.781Z,53.78
2016-03-29T09:55:59.097Z,52.17
2016-03-29T09:57:00.272Z,52.74
2016-03-29T09:57:59.821Z,53.59
2016-03-29T09:58:59.792Z,55.5
2016-03-29T09:59:59.951Z,52.93
2016-03-29T10:00:59.672Z,51.79
2016-03-29T10:01:58.518Z,51.22
2016-03-29T10:02:59.927Z,51.98
2016-03-29T10:03:58.649Z,51.03
2016-03-29T10:05:00.948Z,50.84
2016-03-29T10:05:58.718Z,50.65
2016-03-29T10:06:59.845Z,53.12
2016-03-29T10:08:00.348Z,56.16
2016-03-29T10:08:59.757Z,53.72
2016-03-29T10:09:59.649Z,50.96
2016-03-29T10:10:59.184Z,51.06
2016-03-29T10:11:59.576Z,49.44
2016-03-29T10:12:59.268Z,50.48
2016-03-29T10:13:59.504Z,49.25
2016-03-29T10:14:59.398Z,49.06
2016-03-29T10:15:58.901Z,49.35
2016-03-29T10:16:59.465Z,48.39
2016-03-29T10:17:58.687Z,48.49
2016-03-29T10:18:59.549Z,49.44
2016-03-29T10:19:58.489Z,50.2
2016-03-29T10:20:59.414Z,49.82
2016-03-29T10:21:59.353Z,49.15
2016-03-29T10:22:59.341Z,49.44
2016-03-29T10:23:58.844Z,50.74
2016-03-29T10:24:58.503Z,50.01
2016-03-29T10:25:58.303Z,49.25
2016-03-29T10:26:58.789Z,49.25
2016-03-29T10:27:59.402Z,47.82
2016-03-29T10:28:59.404Z,48.3
2016-03-29T10:29:59.453Z,49.73
2016-03-29T10:30:58.424Z,47.25
2016-03-29T10:31:59.349Z,47.06
2016-03-29T10:32:59.633Z,46.4
2016-03-29T10:34:58.748Z,49.15
2016-03-29T10:35:59.657Z,46.78
2016-03-29T10:36:58.675Z,47.16
2016-03-29T10:37:58.662Z,47.92
2016-03-29T10:38:58.415Z,48.68
2016-03-29T10:39:58.434Z,48.68
2016-03-29T10:40:58.468Z,49.44
2016-03-29T10:41:59.751Z,50.68
2016-03-29T10:42:59.535Z,49.98
2016-03-29T10:43:59.600Z,49.79
2016-03-29T10:44:58.572Z,50.93
2016-03-29T10:45:59.278Z,50.27
2016-03-29T10:46:58.280Z,50.56
2016-03-29T10:47:59.439Z,52.26
2016-03-29T10:49:58.100Z,51.03
2016-03-29T10:50:58.634Z,50.93
2016-03-29T10:51:58.606Z,49.6
2016-03-29T10:52:58.297Z,49.51
2016-03-29T10:53:58.299Z,50.18
2016-03-29T10:54:58.584Z,49.06
2016-03-29T10:55:58.477Z,48.39
2016-03-29T10:56:58.026Z,46.68
2016-03-29T10:57:59.310Z,46.68
2016-03-29T10:58:58.642Z,47.25
2016-03-29T10:59:59.128Z,47.06
2016-03-29T11:01:00.444Z,47.44
2016-03-29T11:01:57.961Z,47.92
2016-03-29T11:02:58.230Z,50.01
2016-03-29T11:03:57.952Z,49.35
2016-03-29T11:04:58.079Z,49.44
2016-03-29T11:05:59.035Z,49.73
2016-03-29T11:06:58.959Z,50.96
2016-03-29T11:07:59.102Z,50.1
2016-03-29T11:08:58.074Z,49.98
2016-03-29T11:09:59.608Z,51.31
2016-03-29T11:10:59.235Z,50.84
2016-03-29T11:11:58.426Z,51.89
2016-03-29T11:12:59.226Z,51.31
2016-03-29T11:13:59.493Z,52.93
2016-03-29T11:14:59.309Z,52.26
2016-03-29T11:15:59.545Z,52.74
2016-03-29T11:16:57.845Z,54.83
2016-03-29T11:17:59.114Z,55.02
2016-03-29T11:18:58.835Z,54.77
2016-03-29T11:19:59.198Z,50.58
2016-03-29T11:20:58.997Z,49.15
2016-03-29T11:21:59.547Z,48.3
2016-03-29T11:22:59.346Z,48.3
2016-03-29T11:23:58.895Z,48.3
2016-03-29T11:24:59.305Z,48.49
2016-03-29T11:25:58.901Z,48.01
2016-03-29T11:26:58.014Z,48.01
2016-03-29T11:27:57.767Z,47.18
2016-03-29T11:28:58.784Z,48.21
2016-03-29T11:29:59.100Z,48.58
2016-03-29T11:30:59.321Z,50.01
2016-03-29T11:31:58.917Z,48.3
2016-03-29T11:32:59.280Z,47.44
2016-03-29T11:33:59.000Z,48.68
2016-03-29T11:34:58.519Z,47.34
2016-03-29T11:35:58.537Z,49.82
2016-03-29T11:37:33.213Z,51.53
2016-03-29T11:39:23.468Z,49.35
2016-03-29T11:41:07.176Z,51.34
2016-03-29T11:42:56.634Z,47.44
2016-03-29T11:44:43.574Z,48.01
2016-03-29T11:46:30.829Z,49.25
2016-03-29T11:48:20.037Z,42.61
2016-03-29T11:50:13.247Z,43.38
2016-03-29T11:52:20.923Z,44.92
2016-03-29T11:54:29.914Z,45.3
2016-03-29T11:56:51.312Z,45.23
2016-03-29T11:59:22.692Z,40.28
2016-03-29T12:01:51.717Z,42.18
2016-03-29T12:04:27.519Z,43.49
2016-03-29T12:06:40.149Z,43.49
2016-03-29T12:07:09.321Z,43.78
2016-03-29T12:10:09.548Z,44.33
2016-03-29T12:11:09.582Z,45.28
2016-03-29T12:12:09.131Z,46.42
2016-03-29T12:13:10.321Z,45.56
2016-03-29T12:14:09.464Z,43.66
2016-03-29T12:15:09.561Z,45.47
2016-03-29T12:16:09.596Z,43.85
2016-03-29T12:17:09.254Z,43.85
2016-03-29T12:18:09.975Z,44.8
2016-03-29T12:19:09.431Z,47.18
2016-03-29T12:20:09.527Z,46.68
2016-03-29T12:21:09.624Z,46.88
2016-03-29T12:22:09.236Z,47.16
2016-03-29T12:23:09.536Z,46.3
2016-03-29T12:24:10.336Z,49.54
2016-03-29T12:25:12.651Z,51.91
2016-03-29T12:26:12.434Z,51.62
2016-03-29T12:27:12.078Z,50.87
2016-03-29T12:28:12.362Z,48.32
2016-03-29T12:30:12.070Z,49.37
2016-03-29T12:31:12.464Z,46.61
2016-03-29T12:32:12.044Z,48.63
2016-03-29T12:33:12.328Z,48.25
2016-03-29T12:34:12.972Z,49.3
2016-03-29T12:35:12.818Z,46.56
2016-03-29T12:36:12.680Z,45.51
2016-03-29T12:37:12.167Z,45.61
2016-03-29T12:38:12.216Z,45.89
2016-03-29T12:39:12.485Z,45.68
2016-03-29T12:40:12.487Z,44.35
2016-03-29T12:41:12.209Z,43.3
2016-03-29T12:42:12.274Z,44.92
2016-03-29T12:43:12.152Z,43.3
2016-03-29T12:44:12.608Z,45.11
2016-03-29T12:45:12.768Z,48.44
2016-03-29T12:46:12.238Z,47.39
2016-03-29T12:47:12.257Z,49.3
2016-03-29T12:48:12.713Z,49.77
2016-03-29T12:49:12.340Z,49.3
2016-03-29T12:50:12.359Z,48.73
2016-03-29T12:51:12.221Z,47.97
2016-03-29T12:52:12.114Z,52.06
2016-03-29T12:53:12.320Z,49.01
2016-03-29T12:54:12.134Z,48.44
2016-03-29T12:55:12.169Z,48.03
2016-03-29T12:56:12.187Z,49.08
2016-03-29T12:57:12.205Z,47.56
2016-03-29T12:58:12.302Z,46.99
2016-03-29T12:59:12.195Z,47.92
2016-03-29T13:00:11.932Z,48.01
2016-03-29T13:01:12.200Z,46.97
2016-03-29T13:02:11.952Z,46.2
2016-03-29T13:03:30.190Z,48.01
2016-03-29T13:05:10.680Z,47.54
2016-03-29T13:06:48.260Z,46.68
2016-03-29T13:08:21.797Z,48.39
2016-03-29T13:10:16.866Z,47.06
2016-03-29T13:12:30.418Z,46.51
2016-03-29T13:14:32.470Z,46.99
2016-03-29T13:16:36.038Z,48.42
2016-03-29T13:18:46.418Z,49.37
2016-03-29T13:20:43.142Z,46.33
2016-03-29T13:23:03.697Z,46.99
2016-03-29T13:25:27.093Z,43.95
2016-03-29T13:27:34.598Z,44.54
2016-03-29T13:29:46.541Z,46.8
2016-03-29T13:32:15.393Z,44.45
2016-03-29T13:32:55.474Z,43.4
2016-03-29T13:33:56.211Z,43.59
2016-03-29T13:34:56.604Z,45.11
2016-03-29T13:35:55.529Z,48.25
2016-03-29T13:36:55.641Z,46.42
2016-03-29T13:37:55.627Z,45.66
2016-03-29T13:39:13.521Z,45
2016-03-29T13:40:48.040Z,43.28
2016-03-29T13:42:16.857Z,42.24
2016-03-29T13:43:48.204Z,44.42
2016-03-29T13:45:23.162Z,43.76
2016-03-29T13:46:53.574Z,42.4
2016-03-29T13:48:21.608Z,45.92
2016-03-29T13:49:56.457Z,44.9
2016-03-29T13:51:29.226Z,45.09
2016-03-29T13:53:05.465Z,43.47
2016-03-29T13:54:35.828Z,43.28
2016-03-29T13:56:04.083Z,44.33
2016-03-29T13:57:33.492Z,44.52
2016-03-29T13:59:05.091Z,42.9
2016-03-29T14:00:36.219Z,41.28
2016-03-29T14:02:12.224Z,41.47
2016-03-29T14:03:46.835Z,40.81
2016-03-29T14:05:21.872Z,41.59
2016-03-29T14:06:42.000Z,42.25
2016-03-29T14:08:09.547Z,43.49
2016-03-29T14:08:43.674Z,42.54
2016-03-29T14:09:45.176Z,42.35
2016-03-29T14:10:44.629Z,42.16
2016-03-29T14:11:44.547Z,43.28
2016-03-29T14:12:43.268Z,43.95
2016-03-29T14:13:44.693Z,45.21
2016-03-29T14:14:45.071Z,43.19
2016-03-29T14:15:45.136Z,43.49
2016-03-29T14:16:44.467Z,43.19
2016-03-29T14:17:44.750Z,44.54
2016-03-29T14:18:44.550Z,43.21
2016-03-29T14:19:43.944Z,44.9
2016-03-29T14:20:44.511Z,43.85
2016-03-29T14:21:43.669Z,43.09
2016-03-29T14:22:43.500Z,42.99